createdAt,value
2022-08-05T00:02:52.286Z,48.02
2022-08-05T00:06:05.410Z,48.41
2022-08-05T00:09:19.678Z,48.03
2022-08-05T00:12:22.822Z,48.42
2022-08-05T00:15:57.551Z,48.03
2022-08-05T00:18:49.645Z,47.96
2022-08-05T00:21:54.418Z,48.21
2022-08-05T00:24:57.877Z,48.22
2022-08-05T00:28:00.694Z,48.25
2022-08-05T00:31:07.607Z,48.78
2022-08-05T00:34:54.216Z,48.38
2022-08-05T00:37:50.763Z,48.45
2022-08-05T00:41:01.973Z,47.69
2022-08-05T00:44:05.397Z,47.76
2022-08-05T00:47:08.061Z,47.84
2022-08-05T00:50:15.328Z,48.42
2022-08-05T00:54:01.375Z,47.98
2022-08-05T00:56:51.272Z,48.00
2022-08-05T00:59:55.127Z,47.97
2022-08-05T01:02:59.847Z,48.70
2022-08-05T01:06:05.445Z,47.72
2022-08-05T01:09:11.458Z,48.75
2022-08-05T01:12:19.179Z,47.81
2022-08-05T01:15:36.147Z,47.24
2022-08-05T01:18:43.543Z,47.75
2022-08-05T01:22:06.066Z,46.80
2022-08-05T01:25:14.526Z,45.92
2022-08-05T01:28:57.423Z,45.28
2022-08-05T01:32:12.530Z,44.84
2022-08-05T01:35:50.886Z,43.97
2022-08-05T01:38:50.899Z,43.46
2022-08-05T01:41:56.169Z,42.77
2022-08-05T01:45:02.427Z,42.63
2022-08-05T01:48:10.479Z,41.91
2022-08-05T01:51:17.104Z,41.84
2022-08-05T01:54:25.477Z,41.41
2022-08-05T01:58:10.298Z,41.68
2022-08-05T02:00:59.037Z,41.49
2022-08-05T02:04:04.170Z,41.09
2022-08-05T02:07:07.185Z,41.03
2022-08-05T02:10:17.483Z,40.78
2022-08-05T02:13:53.093Z,40.71
2022-08-05T02:17:08.263Z,40.67
2022-08-05T02:20:23.380Z,40.47
2022-08-05T02:23:33.557Z,40.65
2022-08-05T02:26:53.745Z,40.38
2022-08-05T02:30:01.204Z,40.45
2022-08-05T02:33:06.612Z,40.37
2022-08-05T02:36:15.670Z,40.45
2022-08-05T02:39:21.826Z,40.58
2022-08-05T02:42:27.600Z,40.57
2022-08-05T02:45:52.046Z,40.64
2022-08-05T02:48:57.167Z,40.60
2022-08-05T02:52:03.459Z,40.43
2022-08-05T02:55:10.971Z,40.28
2022-08-05T02:58:17.043Z,40.00
2022-08-05T03:01:25.452Z,40.11
2022-08-05T03:04:30.832Z,40.17
2022-08-05T03:08:00.435Z,40.20
2022-08-05T03:11:50.039Z,40.19
2022-08-05T03:14:21.413Z,40.26
2022-08-05T03:17:24.149Z,40.37
2022-08-05T03:20:28.383Z,40.38
2022-08-05T03:23:32.528Z,40.34
2022-08-05T03:26:38.373Z,40.46
2022-08-05T03:29:45.325Z,40.47
2022-08-05T03:33:06.129Z,40.47
2022-08-05T03:36:12.155Z,40.58
2022-08-05T03:39:26.806Z,40.79
2022-08-05T03:42:32.086Z,41.01
2022-08-05T03:45:58.137Z,41.16
2022-08-05T03:48:58.832Z,41.50
2022-08-05T03:52:50.074Z,41.75
2022-08-05T03:56:05.809Z,41.90
2022-08-05T03:59:02.998Z,42.20
2022-08-05T04:02:10.058Z,42.38
2022-08-05T04:05:19.011Z,42.41
2022-08-05T04:08:35.318Z,42.52
2022-08-05T04:11:50.712Z,42.36
2022-08-05T04:14:57.641Z,42.56
2022-08-05T04:18:07.006Z,42.74
2022-08-05T04:21:12.081Z,42.98
2022-08-05T04:24:27.754Z,42.70
2022-08-05T04:27:33.059Z,42.51
2022-08-05T04:30:45.492Z,42.43
2022-08-05T04:34:17.594Z,42.51
2022-08-05T04:37:12.951Z,42.30
2022-08-05T04:40:17.096Z,42.39
2022-08-05T04:43:22.699Z,42.17
2022-08-05T04:46:28.754Z,41.99
2022-08-05T04:49:38.415Z,41.73
2022-08-05T04:52:54.434Z,41.64
2022-08-05T04:56:14.466Z,41.43
2022-08-05T04:59:23.896Z,41.29
2022-08-05T05:02:37.593Z,41.11
2022-08-05T05:06:39.594Z,40.87
2022-08-05T05:09:14.073Z,41.07
2022-08-05T05:12:20.437Z,40.94
2022-08-05T05:15:59.391Z,40.44
2022-08-05T05:19:16.431Z,40.04
2022-08-05T05:22:23.636Z,39.55
2022-08-05T05:25:40.480Z,38.98
2022-08-05T05:28:44.954Z,37.10
2022-08-05T05:31:47.862Z,36.74
2022-08-05T05:34:52.377Z,36.24
2022-08-05T05:38:01.779Z,34.94
2022-08-05T05:41:07.722Z,35.05
2022-08-05T05:44:15.737Z,34.95
2022-08-05T05:48:06.534Z,35.09
2022-08-05T05:50:59.524Z,33.13
2022-08-05T05:54:19.604Z,33.40
2022-08-05T05:57:22.509Z,33.15
2022-08-05T06:00:27.544Z,33.00
2022-08-05T06:04:00.664Z,32.63
2022-08-05T06:06:57.507Z,32.32
2022-08-05T06:10:10.239Z,32.40
2022-08-05T06:13:13.673Z,31.92
2022-08-05T06:16:30.167Z,31.88
2022-08-05T06:19:35.791Z,30.95
2022-08-05T06:22:40.391Z,31.28
2022-08-05T06:26:13.360Z,30.86
2022-08-05T06:29:25.390Z,30.90
2022-08-05T06:32:29.442Z,30.60
2022-08-05T06:36:06.823Z,30.64
2022-08-05T06:38:55.373Z,30.14
2022-08-05T06:42:01.381Z,30.57
2022-08-05T06:45:08.685Z,30.32
2022-08-05T06:48:52.549Z,30.27
2022-08-05T06:51:34.825Z,29.68
2022-08-05T06:54:38.973Z,30.07
2022-08-05T06:57:57.340Z,29.68
2022-08-05T07:01:08.213Z,30.30
2022-08-05T07:04:16.023Z,29.41
2022-08-05T07:07:35.262Z,29.35
2022-08-05T07:10:53.048Z,28.57
2022-08-05T07:14:29.660Z,28.67
2022-08-05T07:18:00.303Z,28.69
2022-08-05T07:20:57.305Z,27.73
2022-08-05T07:24:03.083Z,28.09
2022-08-05T07:27:14.053Z,27.46
2022-08-05T07:30:25.408Z,26.97
2022-08-05T07:33:36.813Z,26.78
2022-08-05T07:36:40.317Z,26.88
2022-08-05T07:40:04.419Z,26.85
2022-08-05T07:43:20.504Z,26.33
2022-08-05T07:46:26.719Z,26.48
2022-08-05T07:49:29.521Z,26.23
2022-08-05T07:52:32.499Z,26.34
2022-08-05T07:56:05.159Z,25.88
2022-08-05T07:58:59.246Z,26.08
2022-08-05T08:02:03.206Z,25.28
2022-08-05T08:05:07.232Z,25.53
2022-08-05T08:08:14.301Z,25.37
2022-08-05T08:11:18.546Z,25.07
2022-08-05T08:14:30.903Z,24.68
2022-08-05T08:17:35.312Z,24.65
2022-08-05T08:20:43.308Z,24.51
2022-08-05T08:24:04.898Z,24.49
2022-08-05T08:27:09.321Z,24.25
2022-08-05T08:30:28.572Z,23.88
2022-08-05T08:33:38.261Z,23.11
2022-08-05T08:36:48.841Z,22.03
2022-08-05T08:39:57.775Z,21.77
2022-08-05T08:45:16.283Z,21.77
2022-08-05T08:46:29.375Z,22.04
2022-08-05T08:50:22.604Z,21.68
2022-08-05T08:53:08.036Z,22.32
2022-08-05T08:56:11.984Z,22.11
2022-08-05T08:59:19.738Z,21.15
2022-08-05T09:02:26.939Z,20.72
2022-08-05T09:05:38.209Z,21.05
2022-08-05T09:08:52.985Z,20.55
2022-08-05T09:12:00.147Z,20.65
2022-08-05T09:15:09.961Z,20.68
2022-08-05T09:18:13.454Z,20.60
2022-08-05T09:21:21.238Z,20.45
2022-08-05T09:24:39.821Z,19.61
2022-08-05T09:28:05.387Z,19.15
2022-08-05T09:31:22.907Z,18.88
2022-08-05T09:34:52.257Z,18.41
2022-08-05T09:38:13.002Z,18.98
2022-08-05T09:41:21.796Z,19.64
2022-08-05T09:44:35.956Z,17.75
2022-08-05T09:47:55.496Z,17.82
2022-08-05T09:51:14.805Z,18.40
2022-08-05T09:54:31.962Z,17.55
2022-08-05T09:57:46.138Z,16.82
2022-08-05T10:00:55.149Z,18.01
2022-08-05T10:04:03.546Z,17.82
2022-08-05T10:07:19.907Z,17.45
2022-08-05T10:10:32.564Z,17.89
2022-08-05T10:13:46.283Z,17.46
2022-08-05T10:16:53.216Z,16.69
2022-08-05T10:20:04.120Z,17.20
2022-08-05T10:23:34.240Z,16.85
2022-08-05T10:26:51.397Z,17.13
2022-08-05T10:30:41.596Z,17.30
2022-08-05T10:33:18.267Z,15.99
2022-08-05T10:36:25.833Z,16.31
2022-08-05T10:39:58.948Z,15.55
2022-08-05T10:43:12.554Z,16.17
2022-08-05T10:46:17.794Z,15.82
2022-08-05T10:49:27.586Z,15.57
2022-08-05T10:52:49.516Z,15.68
2022-08-05T10:56:21.333Z,15.47
2022-08-05T11:00:02.840Z,15.32
2022-08-05T11:03:25.377Z,15.55
2022-08-05T11:06:30.750Z,16.21
2022-08-05T11:09:46.655Z,16.29
2022-08-05T11:12:55.034Z,15.02
2022-08-05T11:16:22.262Z,15.41
2022-08-05T11:20:10.473Z,14.84
2022-08-05T11:24:02.879Z,14.46
2022-08-05T11:27:50.833Z,14.69
2022-08-05T11:30:58.219Z,13.82
2022-08-05T11:34:08.032Z,14.37
2022-08-05T11:38:26.653Z,14.53
2022-08-05T11:41:34.592Z,14.45
2022-08-05T11:44:52.740Z,13.81
2022-08-05T11:47:58.035Z,13.83
2022-08-05T11:51:02.438Z,14.22
2022-08-05T11:54:05.241Z,14.14
2022-08-05T11:57:24.451Z,13.76
2022-08-05T12:00:31.354Z,13.76
2022-08-05T12:03:55.826Z,13.97
2022-08-05T12:07:02.165Z,13.09
2022-08-05T12:10:09.284Z,12.77
2022-08-05T12:13:27.908Z,12.78
2022-08-05T12:16:45.373Z,13.12
2022-08-05T12:20:27.272Z,12.74
2022-08-05T12:23:14.896Z,12.76
2022-08-05T12:26:17.441Z,13.73
2022-08-05T12:29:22.747Z,13.48
2022-08-05T12:32:25.956Z,13.68
2022-08-05T12:35:39.518Z,13.89
2022-08-05T12:38:43.078Z,13.82
2022-08-05T12:41:46.783Z,14.20
2022-08-05T12:44:51.254Z,14.24
2022-08-05T12:48:17.190Z,13.64
2022-08-05T12:52:10.924Z,13.68
2022-08-05T12:54:43.345Z,13.45
2022-08-05T12:58:52.625Z,14.38
2022-08-05T13:02:01.313Z,13.62
2022-08-05T13:04:41.884Z,13.60
2022-08-05T13:07:59.734Z,14.45
2022-08-05T13:11:04.079Z,13.73
2022-08-05T13:14:36.274Z,13.21
2022-08-05T13:17:41.263Z,13.09
2022-08-05T13:20:46.266Z,13.58
2022-08-05T13:23:50.783Z,15.02
2022-08-05T13:26:55.407Z,14.34
2022-08-05T13:30:34.475Z,13.95
2022-08-05T13:34:23.836Z,13.64
2022-08-05T13:36:45.130Z,13.86
2022-08-05T13:40:14.604Z,13.41
2022-08-05T13:43:13.928Z,13.63
2022-08-05T13:46:44.069Z,13.65
2022-08-05T13:49:52.421Z,13.60
2022-08-05T13:52:56.679Z,13.71
2022-08-05T13:56:02.255Z,13.69
2022-08-05T13:59:06.004Z,14.89
2022-08-05T14:02:26.531Z,14.32
2022-08-05T14:06:04.578Z,13.99
2022-08-05T14:08:55.494Z,13.90
2022-08-05T14:12:17.128Z,13.83
2022-08-05T14:16:06.346Z,14.32
2022-08-05T14:18:44.936Z,14.21
2022-08-05T14:22:09.278Z,14.28
2022-08-05T14:25:21.666Z,14.30
2022-08-05T14:28:26.981Z,14.41
2022-08-05T14:32:03.726Z,14.66
2022-08-05T14:34:53.792Z,14.83
2022-08-05T14:37:57.683Z,15.09
2022-08-05T14:41:07.705Z,15.06
2022-08-05T14:44:20.297Z,15.37
2022-08-05T14:48:02.972Z,15.04
2022-08-05T14:50:48.282Z,15.43
2022-08-05T14:54:26.524Z,15.98
2022-08-05T14:57:15.461Z,15.97
2022-08-05T15:00:20.032Z,16.91
2022-08-05T15:03:25.529Z,16.55
2022-08-05T15:06:30.271Z,16.46
2022-08-05T15:09:52.705Z,16.75
2022-08-05T15:13:03.376Z,16.73
2022-08-05T15:16:07.845Z,16.76
2022-08-05T15:19:23.391Z,16.84
2022-08-05T15:22:28.416Z,17.05
2022-08-05T15:25:51.219Z,17.31
2022-08-05T15:28:54.671Z,16.93
2022-08-05T15:32:02.275Z,17.03
2022-08-05T15:35:10.827Z,17.16
2022-08-05T15:38:33.857Z,17.26
2022-08-05T15:41:57.451Z,17.35
2022-08-05T15:45:02.338Z,17.39
2022-08-05T15:48:05.666Z,17.83
2022-08-05T15:51:09.728Z,17.56
2022-08-05T15:54:15.206Z,17.88
2022-08-05T15:57:18.829Z,17.94
2022-08-05T16:00:29.288Z,18.31
2022-08-05T16:03:50.829Z,18.16
2022-08-05T16:06:55.583Z,18.00
2022-08-05T16:09:59.111Z,18.36
2022-08-05T16:13:01.962Z,18.84
2022-08-05T16:16:10.802Z,19.41
2022-08-05T16:19:25.254Z,19.18
2022-08-05T16:22:37.682Z,18.89
2022-08-05T16:25:40.688Z,18.24
2022-08-05T16:28:44.897Z,18.54
2022-08-05T16:31:56.838Z,18.66
2022-08-05T16:35:02.137Z,19.04
2022-08-05T16:38:21.887Z,19.23
2022-08-05T16:42:15.180Z,19.56
2022-08-05T16:44:54.323Z,19.39
2022-08-05T16:48:03.192Z,19.50
2022-08-05T16:51:09.480Z,19.48
2022-08-05T16:54:22.483Z,19.58
2022-08-05T16:57:53.813Z,19.94
2022-08-05T17:00:53.285Z,19.88
2022-08-05T17:03:56.146Z,20.14
2022-08-05T17:07:03.467Z,20.55
2022-08-05T17:10:14.081Z,20.63
2022-08-05T17:13:21.646Z,20.85
2022-08-05T17:16:39.673Z,20.92
2022-08-05T17:19:45.585Z,21.37
2022-08-05T17:22:55.406Z,22.21
2022-08-05T17:26:02.294Z,22.00
2022-08-05T17:29:09.831Z,22.19
2022-08-05T17:32:17.327Z,22.64
2022-08-05T17:35:21.165Z,23.79
2022-08-05T17:38:24.162Z,24.76
2022-08-05T17:42:28.552Z,25.58
2022-08-05T17:44:52.684Z,26.51
2022-08-05T17:47:56.321Z,27.06
2022-08-05T17:50:59.494Z,27.88
2022-08-05T17:54:04.279Z,27.66
2022-08-05T17:57:07.256Z,28.29
2022-08-05T18:00:15.353Z,28.50
2022-08-05T18:06:42.233Z,28.85
2022-08-05T18:09:59.818Z,29.55
2022-08-05T18:13:07.657Z,29.96
2022-08-05T18:16:18.111Z,30.14
2022-08-05T18:19:25.826Z,30.14
2022-08-05T18:22:46.115Z,30.46
2022-08-05T18:25:57.861Z,30.83
2022-08-05T18:29:02.498Z,31.36
2022-08-05T18:32:05.726Z,31.90
2022-08-05T18:35:08.937Z,32.09
2022-08-05T18:38:16.537Z,32.18
2022-08-05T18:41:55.477Z,32.13
2022-08-05T18:44:51.809Z,32.26
2022-08-05T18:47:59.611Z,32.56
2022-08-05T18:52:04.188Z,32.70
2022-08-05T18:54:45.922Z,32.81
2022-08-05T18:57:52.602Z,32.79
2022-08-05T19:00:58.405Z,33.96
2022-08-05T19:04:05.424Z,34.39
2022-08-05T19:07:09.221Z,36.37
2022-08-05T19:10:12.179Z,36.01
2022-08-05T19:13:15.939Z,35.43
2022-08-05T19:16:25.068Z,35.23
2022-08-05T19:19:34.110Z,35.71
2022-08-05T19:22:37.290Z,34.66
2022-08-05T19:25:49.236Z,35.02
2022-08-05T19:28:52.329Z,35.22
2022-08-05T19:31:57.381Z,35.81
2022-08-05T19:35:05.651Z,35.28
2022-08-05T19:38:09.777Z,34.88
2022-08-05T19:41:14.994Z,35.18
2022-08-05T19:44:19.892Z,35.24
2022-08-05T19:47:22.834Z,35.94
2022-08-05T19:50:27.321Z,35.58
2022-08-05T19:54:04.466Z,36.18
2022-08-05T19:56:55.881Z,36.71
2022-08-05T20:00:01.985Z,36.82
2022-08-05T20:03:14.169Z,36.76
2022-08-05T20:06:25.993Z,37.11
2022-08-05T20:09:55.180Z,37.41
2022-08-05T20:12:55.733Z,37.84
2022-08-05T20:15:59.815Z,37.83
2022-08-05T20:19:03.574Z,38.30
2022-08-05T20:22:06.423Z,38.31
2022-08-05T20:25:12.884Z,39.05
2022-08-05T20:28:15.842Z,39.70
2022-08-05T20:31:22.849Z,39.53
2022-08-05T20:34:31.802Z,39.56
2022-08-05T20:38:06.405Z,39.76
2022-08-05T20:40:57.360Z,39.33
2022-08-05T20:44:17.118Z,39.55
2022-08-05T20:47:21.087Z,39.47
2022-08-05T20:50:37.755Z,39.31
2022-08-05T20:53:48.099Z,38.95
2022-08-05T20:56:59.144Z,38.59
2022-08-05T21:00:21.066Z,38.27
2022-08-05T21:03:25.093Z,38.64
2022-08-05T21:06:29.613Z,39.50
2022-08-05T21:09:33.693Z,39.29
2022-08-05T21:12:36.855Z,40.59
2022-08-05T21:15:46.122Z,40.19
2022-08-05T21:18:54.010Z,38.84
2022-08-05T21:21:58.443Z,38.48
2022-08-05T21:25:01.092Z,38.48
2022-08-05T21:28:05.592Z,38.62
2022-08-05T21:31:09.106Z,38.70
2022-08-05T21:34:12.390Z,38.81
2022-08-05T21:37:16.259Z,39.64
2022-08-05T21:40:19.175Z,40.04
2022-08-05T21:43:24.242Z,41.11
2022-08-05T21:46:29.304Z,41.28
2022-08-05T21:49:56.840Z,41.06
2022-08-05T21:52:58.839Z,40.75
2022-08-05T21:56:16.532Z,40.58
2022-08-05T21:59:23.950Z,40.88
2022-08-05T22:02:27.935Z,41.17
2022-08-05T22:05:48.898Z,41.36
2022-08-05T22:08:52.744Z,41.91
2022-08-05T22:11:55.718Z,42.10
2022-08-05T22:14:59.668Z,42.58
2022-08-05T22:18:03.282Z,42.59
2022-08-05T22:21:19.114Z,43.08
2022-08-05T22:24:51.736Z,42.64
2022-08-05T22:28:10.438Z,42.94
2022-08-05T22:31:14.481Z,43.27
2022-08-05T22:34:25.489Z,44.20
2022-08-05T22:37:58.860Z,44.38
2022-08-05T22:40:55.289Z,45.19
2022-08-05T22:43:59.485Z,44.82
2022-08-05T22:47:06.025Z,45.00
2022-08-05T22:50:20.196Z,44.89
2022-08-05T22:53:26.158Z,45.18
2022-08-05T22:56:39.836Z,45.62
2022-08-05T22:59:51.766Z,45.86
2022-08-05T23:02:57.109Z,45.91
2022-08-05T23:06:01.389Z,45.99
2022-08-05T23:09:27.425Z,46.47
2022-08-05T23:12:29.008Z,45.79
2022-08-05T23:15:36.396Z,45.59
2022-08-05T23:18:39.076Z,45.11
2022-08-05T23:21:48.325Z,45.28
2022-08-05T23:24:54.217Z,45.08
2022-08-05T23:27:57.922Z,45.35
2022-08-05T23:31:16.444Z,44.86
2022-08-05T23:34:24.373Z,45.15
2022-08-05T23:37:36.438Z,45.54
2022-08-05T23:40:39.776Z,45.68
2022-08-05T23:44:06.440Z,45.79
2022-08-05T23:47:15.598Z,46.01
2022-08-05T23:50:20.281Z,45.83
2022-08-05T23:53:23.456Z,45.91
2022-08-05T23:56:31.230Z,46.06
